Time;durP1;ratioP1;P1;durP2;ratioP2;P2;SDS_P1;SDS_P2;PMS_P1;PMS_P2;Temp;Humidity;BMP_temperature;BMP_pressure;BME280_temperature;BME280_humidity;BME280_pressure;Samples;Min_cycle;Max_cycle;Signal;HPM_P1;HPM_P2
2021/10/29 00:02:16;;;;;;;14.27;10.63;;;;;;;8.73;87.27;101010.47;5074942;28;20628;-36
2021/10/29 00:04:41;;;;;;;16.42;10.23;;;;;;;8.68;87.40;101001.38;5074893;28;20020;-36
2021/10/29 00:07:08;;;;;;;17.27;9.67;;;;;;;8.65;87.61;101007.19;5074957;28;20184;-35
2021/10/29 00:09:35;;;;;;;12.43;9.68;;;;;;;8.74;86.88;101003.22;5074618;28;20025;-35
2021/10/29 00:12:00;;;;;;;;;;;;;;;8.80;86.78;101002.34;5075186;28;20524;-35
2021/10/29 00:14:27;;;;;;;12.68;9.90;;;;;;;8.72;87.30;101005.28;5074676;28;20003;-35
2021/10/29 00:16:53;;;;;;;15.18;9.88;;;;;;;8.74;87.20;101000.53;5075205;28;20036;-35
2021/10/29 00:19:19;;;;;;;17.67;10.53;;;;;;;8.64;87.88;100986.69;5073977;28;20037;-36
2021/10/29 00:21:44;;;;;;;15.00;10.77;;;;;;;8.70;87.45;101005.50;5074276;28;20303;-35
2021/10/29 00:24:10;;;;;;;14.93;10.52;;;;;;;8.69;87.72;101005.75;5081487;28;20092;-35
2021/10/29 00:26:35;;;;;;;14.35;10.13;;;;;;;8.57;87.39;100983.19;5114887;28;20028;-35
2021/10/29 00:29:01;;;;;;;13.97;10.27;;;;;;;8.59;87.72;100997.25;5114790;28;20455;-35
2021/10/29 00:31:26;;;;;;;15.17;10.93;;;;;;;8.59;88.08;100998.09;5114888;28;20405;-35
2021/10/29 00:33:51;;;;;;;17.13;10.83;;;;;;;8.60;87.76;100993.53;5115000;28;20019;-35
2021/10/29 00:36:17;;;;;;;15.53;10.87;;;;;;;8.57;87.80;100993.97;5115706;28;20108;-36
2021/10/29 00:38:42;;;;;;;14.60;11.47;;;;;;;8.56;87.96;100992.31;5115438;28;20035;-35
2021/10/29 00:41:07;;;;;;;13.27;10.77;;;;;;;8.41;88.04;100979.09;5114845;28;20072;-35
2021/10/29 00:43:33;;;;;;;15.17;10.93;;;;;;;8.52;88.36;100983.81;5114808;28;20035;-35
2021/10/29 00:45:58;;;;;;;15.27;10.87;;;;;;;8.49;88.26;100977.00;5114444;28;20015;-35
2021/10/29 00:48:23;;;;;;;13.60;10.77;;;;;;;8.57;88.41;100985.88;5114863;28;20051;-35
2021/10/29 00:50:49;;;;;;;15.90;11.43;;;;;;;8.57;88.04;100983.19;5114370;28;20049;-35
2021/10/29 00:53:15;;;;;;;15.47;11.60;;;;;;;8.51;88.46;100969.50;5115356;28;20035;-35
2021/10/29 00:55:41;;;;;;;15.30;11.85;;;;;;;8.56;87.77;100981.53;5114580;28;20016;-35
2021/10/29 00:58:06;;;;;;;17.58;11.68;;;;;;;8.51;87.93;100971.38;5114831;28;20111;-35
2021/10/29 01:00:32;;;;;;;15.63;11.10;;;;;;;8.59;88.59;100973.00;5114489;28;20102;-36
2021/10/29 01:02:57;;;;;;;17.48;11.40;;;;;;;8.63;88.20;100977.75;5115012;28;20023;-35
2021/10/29 01:05:23;;;;;;;14.82;10.80;;;;;;;8.64;88.21;100970.50;5114870;28;20015;-35
2021/10/29 01:07:48;;;;;;;18.55;10.52;;;;;;;8.56;88.09;100962.66;5114289;28;20023;-35
2021/10/29 01:10:14;;;;;;;16.30;10.63;;;;;;;8.64;88.78;100978.59;5114289;28;20149;-35
2021/10/29 01:12:39;;;;;;;13.48;9.82;;;;;;;8.59;88.48;100959.50;5114234;28;20019;-35
2021/10/29 01:15:06;;;;;;;14.80;11.00;;;;;;;8.64;87.70;100965.13;5113925;28;20023;-35
2021/10/29 01:17:32;;;;;;;16.10;10.45;;;;;;;8.68;88.24;100971.72;5114691;28;20019;-35
2021/10/29 01:19:58;;;;;;;15.07;10.60;;;;;;;8.62;88.46;100980.66;5113747;28;20098;-35
2021/10/29 01:22:23;;;;;;;16.88;10.60;;;;;;;8.60;88.96;100958.50;5114417;28;20135;-35
2021/10/29 01:24:50;;;;;;;16.08;10.40;;;;;;;8.61;88.60;100962.84;5114198;28;20047;-35
2021/10/29 01:27:17;;;;;;;14.45;10.65;;;;;;;8.64;88.91;100951.63;5113566;28;20069;-35
2021/10/29 01:29:44;;;;;;;15.18;9.63;;;;;;;8.70;88.74;100972.34;5113908;28;20031;-36
2021/10/29 01:32:09;;;;;;;15.93;10.63;;;;;;;8.73;88.04;100971.88;5113678;28;20463;-35
2021/10/29 01:34:37;;;;;;;13.40;10.10;;;;;;;8.68;88.83;100967.13;5114136;28;20016;-36
2021/10/29 01:37:06;;;;;;;13.43;9.75;;;;;;;8.62;88.34;100945.63;5113602;28;20500;-35
2021/10/29 01:39:32;;;;;;;14.38;9.73;;;;;;;8.65;87.87;100943.31;5113862;28;20413;-35
2021/10/29 01:41:57;;;;;;;14.38;10.27;;;;;;;8.73;88.58;100955.72;5113910;28;20024;-36
2021/10/29 01:44:23;;;;;;;13.10;10.03;;;;;;;8.72;88.21;100943.28;5113795;28;20070;-35
2021/10/29 01:46:49;;;;;;;16.93;10.17;;;;;;;8.63;88.34;100933.78;5114361;28;20020;-35
2021/10/29 01:49:14;;;;;;;16.80;10.98;;;;;;;8.63;88.07;100933.78;5113829;28;20439;-35
2021/10/29 01:51:40;;;;;;;15.57;10.27;;;;;;;8.70;88.52;100948.06;5113685;28;20023;-35
2021/10/29 01:54:05;;;;;;;13.25;10.00;;;;;;;8.59;88.50;100919.09;5113332;28;20020;-35
2021/10/29 01:56:31;;;;;;;14.23;10.18;;;;;;;8.65;88.66;100937.94;5113952;28;20027;-36
2021/10/29 01:58:56;;;;;;;14.93;10.57;;;;;;;8.61;88.82;100933.19;5113374;28;20074;-35
2021/10/29 02:01:22;;;;;;;13.90;9.90;;;;;;;8.64;89.22;100938.97;5114372;28;20288;-35
2021/10/29 02:03:48;;;;;;;14.60;10.38;;;;;;;8.57;88.26;100913.09;5113465;28;20464;-35
2021/10/29 02:06:13;;;;;;;14.32;10.70;;;;;;;8.64;88.65;100930.91;5113690;28;20031;-35
2021/10/29 02:08:39;;;;;;;14.77;10.07;;;;;;;8.64;88.71;100922.81;5113910;28;20333;-36
2021/10/29 02:11:04;;;;;;;12.43;9.40;;;;;;;8.56;88.49;100903.38;5113529;28;20109;-35
2021/10/29 02:13:30;;;;;;;14.53;10.67;;;;;;;8.61;88.55;100914.31;5113916;28;20097;-35
2021/10/29 02:15:55;;;;;;;15.67;10.23;;;;;;;8.63;88.43;100914.91;5113435;28;20111;-35
2021/10/29 02:18:20;;;;;;;17.00;10.43;;;;;;;8.67;88.87;100913.44;5113497;28;20031;-35
2021/10/29 02:20:46;;;;;;;13.57;10.32;;;;;;;8.63;88.77;100909.53;5113271;28;20023;-35
2021/10/29 02:23:13;;;;;;;13.03;9.97;;;;;;;8.69;88.64;100904.13;5113992;28;20020;-35
2021/10/29 02:25:43;;;;;;;13.98;10.45;;;;;;;8.69;88.85;100906.81;5113127;28;20044;-35
2021/10/29 02:28:09;;;;;;;18.05;10.27;;;;;;;8.66;88.68;100903.72;5114055;28;20325;-35
2021/10/29 02:30:34;;;;;;;14.30;9.60;;;;;;;8.69;88.70;100906.00;5113325;28;20106;-35
2021/10/29 02:33:00;;;;;;;14.60;9.57;;;;;;;8.71;88.76;100895.81;5113370;28;20371;-35
2021/10/29 02:35:25;;;;;;;12.17;9.77;;;;;;;8.68;88.52;100898.91;5113263;28;20054;-35
2021/10/29 02:37:50;;;;;;;13.93;9.83;;;;;;;8.69;89.00;100892.50;5113576;28;20030;-36
2021/10/29 02:40:16;;;;;;;11.77;9.43;;;;;;;8.66;88.46;100891.06;5113253;28;20015;-35
2021/10/29 02:42:41;;;;;;;14.23;9.47;;;;;;;8.73;88.98;100893.69;5113086;28;20066;-35
2021/10/29 02:45:07;;;;;;;14.53;11.17;;;;;;;8.68;88.64;100885.44;5117247;28;20031;-35
2021/10/29 02:47:32;;;;;;;16.08;11.32;;;;;;;8.67;89.17;100886.50;5117318;28;20459;-35
2021/10/29 02:49:58;;;;;;;13.17;9.97;;;;;;;8.70;88.80;100877.97;5117590;28;20452;-35
2021/10/29 02:52:23;;;;;;;12.73;10.03;;;;;;;8.68;88.88;100885.44;5117016;28;20016;-35
2021/10/29 02:54:49;;;;;;;11.47;9.70;;;;;;;8.70;88.54;100886.88;5116967;28;20146;-35
2021/10/29 02:57:15;;;;;;;13.43;9.90;;;;;;;8.71;88.17;100882.31;5116887;28;20050;-35
2021/10/29 02:59:40;;;;;;;13.95;10.18;;;;;;;8.74;88.44;100887.28;5116999;28;20024;-35
2021/10/29 03:02:06;;;;;;;13.87;9.83;;;;;;;8.62;88.38;100868.28;5117427;28;20458;-35
2021/10/29 03:04:32;;;;;;;17.00;10.75;;;;;;;8.67;88.68;100881.09;5116764;28;20019;-35
2021/10/29 03:06:57;;;;;;;14.02;10.25;;;;;;;8.61;89.15;100865.81;5117111;28;20034;-36
2021/10/29 03:09:22;;;;;;;11.83;9.67;;;;;;;8.62;88.59;100878.22;5116701;28;20062;-35
2021/10/29 03:11:48;;;;;;;12.57;9.40;;;;;;;8.66;88.81;100882.97;5116416;28;20464;-36
2021/10/29 03:14:13;;;;;;;11.90;9.47;;;;;;;8.63;89.04;100864.53;5116311;28;20373;-35
2021/10/29 03:16:39;;;;;;;15.25;10.20;;;;;;;8.65;88.88;100877.81;5116786;28;20456;-35
2021/10/29 03:19:04;;;;;;;13.87;10.00;;;;;;;8.62;88.98;100875.53;5117068;28;20144;-36
2021/10/29 03:21:29;;;;;;;14.70;10.30;;;;;;;8.56;88.74;100865.63;5116993;28;20253;-35
2021/10/29 03:23:55;;;;;;;13.37;9.83;;;;;;;8.46;89.41;100853.44;5115941;28;20092;-35
2021/10/29 03:26:20;;;;;;;11.90;9.57;;;;;;;8.60;88.97;100869.53;5116140;28;20020;-35
2021/10/29 03:28:45;;;;;;;13.50;9.33;;;;;;;8.40;88.77;100848.94;5116291;28;20020;-35
2021/10/29 03:31:11;;;;;;;14.83;9.90;;;;;;;8.57;89.50;100865.41;5116598;28;20020;-35
2021/10/29 03:33:38;;;;;;;14.47;9.07;;;;;;;8.49;89.08;100858.41;5116741;28;20019;-35
2021/10/29 03:36:04;;;;;;;13.70;9.68;;;;;;;8.50;89.77;100861.94;5116476;28;20031;-35
2021/10/29 03:41:18;;;;;;;11.13;8.88;;;;;;;8.45;89.33;100861.75;5116574;28;20050;-35
2021/10/29 03:43:57;;;;;;;11.38;8.35;;;;;;;8.48;89.46;100867.53;5115998;28;20034;-35
2021/10/29 03:46:25;;;;;;;11.63;9.27;;;;;;;8.46;90.53;100855.31;5116283;28;20363;-35
2021/10/29 03:56:20;;;;;;;11.32;8.82;;;;;;;8.41;89.99;100850.56;5116395;28;20031;-35
2021/10/29 03:58:47;;;;;;;12.50;8.45;;;;;;;8.43;89.72;100853.88;5116276;28;20038;-35
2021/10/29 04:01:13;;;;;;;12.50;9.02;;;;;;;8.42;89.66;100854.91;5115601;28;20073;-35
2021/10/29 04:03:38;;;;;;;15.50;9.57;;;;;;;8.28;90.26;100823.66;5115818;28;20019;-35
2021/10/29 04:06:03;;;;;;;11.37;9.03;;;;;;;8.43;89.74;100847.66;5115585;28;20358;-35
2021/10/29 04:08:29;;;;;;;13.13;8.80;;;;;;;8.42;90.23;100849.53;5115570;28;20424;-36
2021/10/29 04:10:56;;;;;;;12.93;8.98;;;;;;;8.38;90.31;100850.19;5115491;28;20023;-35
2021/10/29 04:13:22;;;;;;;15.45;9.20;;;;;;;8.35;89.87;100853.28;5115695;28;20027;-35
2021/10/29 04:15:47;;;;;;;14.47;9.13;;;;;;;8.35;90.45;100843.34;5115750;28;20049;-35
2021/10/29 04:18:12;;;;;;;15.53;9.63;;;;;;;8.22;90.14;100819.16;5115703;28;20478;-35
2021/10/29 04:20:38;;;;;;;14.77;9.53;;;;;;;8.35;90.19;100850.59;5115275;28;20076;-35
2021/10/29 04:23:04;;;;;;;11.13;7.97;;;;;;;8.31;90.86;100843.97;5115586;28;20016;-36
2021/10/29 04:25:30;;;;;;;13.00;9.15;;;;;;;8.22;90.72;100827.25;5115555;28;20071;-36
2021/10/29 04:27:59;;;;;;;11.70;9.43;;;;;;;8.32;90.45;100845.63;5115611;28;20051;-35
2021/10/29 04:30:26;;;;;;;13.45;9.02;;;;;;;8.33;90.52;100837.31;5115085;28;20475;-35
2021/10/29 04:32:52;;;;;;;11.75;8.50;;;;;;;8.32;90.66;100838.38;5115615;28;20343;-35
2021/10/29 04:35:17;;;;;;;10.18;8.43;;;;;;;8.36;91.55;100839.63;5114688;28;20027;-35
2021/10/29 04:37:43;;;;;;;14.57;8.00;;;;;;;8.38;90.35;100837.53;5115304;28;20028;-35
2021/10/29 04:40:09;;;;;;;11.48;7.72;;;;;;;8.41;90.48;100834.41;5114841;28;20099;-35
2021/10/29 04:42:35;;;;;;;;;;;;;;;8.45;90.32;100835.63;5115562;28;20114;-35
2021/10/29 04:45:01;;;;;;;10.70;7.50;;;;;;;8.38;90.66;100815.16;5114609;28;20331;-35
2021/10/29 04:47:27;;;;;;;10.02;7.32;;;;;;;8.50;91.07;100821.50;5114718;28;20073;-35
2021/10/29 04:49:52;;;;;;;11.75;7.60;;;;;;;8.55;90.04;100821.69;5114885;28;20436;-35
2021/10/29 04:52:18;;;;;;;9.43;7.30;;;;;;;8.60;90.50;100821.03;5114953;28;20056;-35
2021/10/29 04:54:43;;;;;;;10.73;7.43;;;;;;;8.65;90.11;100815.81;5115337;28;20024;-35
2021/10/29 04:57:08;;;;;;;11.13;7.50;;;;;;;8.72;90.31;100819.25;5115103;28;20356;-35
2021/10/29 04:59:35;;;;;;;12.37;7.53;;;;;;;8.72;89.87;100819.25;5114762;28;20024;-35
2021/10/29 05:02:00;;;;;;;11.18;6.85;;;;;;;8.76;90.56;100809.69;5114725;28;20058;-35
2021/10/29 05:04:26;;;;;;;10.63;7.07;;;;;;;8.83;89.63;100807.75;5114922;28;20015;-35
2021/10/29 05:06:51;;;;;;;13.07;7.23;;;;;;;8.82;89.81;100798.03;5114188;28;20100;-35
2021/10/29 05:09:16;;;;;;;10.67;7.60;;;;;;;8.81;89.56;100785.59;5114346;28;20022;-35
2021/10/29 05:11:41;;;;;;;16.03;6.67;;;;;;;8.92;89.22;100803.75;5114687;28;20110;-35
2021/10/29 05:14:07;;;;;;;14.67;6.90;;;;;;;8.83;89.52;100782.66;5114411;28;20027;-35
2021/10/29 05:16:32;;;;;;;11.90;6.90;;;;;;;8.89;90.06;100796.09;5114608;28;20022;-36
2021/10/29 05:18:58;;;;;;;9.73;6.68;;;;;;;8.98;89.13;100788.56;5114284;28;20028;-35
2021/10/29 05:21:23;;;;;;;11.10;7.45;;;;;;;8.96;88.64;100782.56;5114681;28;20028;-35
2021/10/29 05:23:49;;;;;;;10.33;6.57;;;;;;;8.97;89.22;100776.09;5114493;28;20026;-35
2021/10/29 05:26:14;;;;;;;12.77;6.70;;;;;;;8.97;89.09;100779.63;5114439;28;20080;-35
2021/10/29 05:28:40;;;;;;;10.87;7.07;;;;;;;8.79;88.79;100752.66;5114537;28;20030;-35
2021/10/29 05:31:05;;;;;;;12.20;6.63;;;;;;;9.04;88.68;100790.38;5114209;28;20065;-35
2021/10/29 05:33:31;;;;;;;10.60;7.00;;;;;;;8.91;89.14;100771.59;5114726;28;20030;-35
2021/10/29 05:35:56;;;;;;;11.32;7.07;;;;;;;8.99;89.40;100788.34;5113834;28;20034;-35
2021/10/29 05:38:22;;;;;;;10.67;6.17;;;;;;;9.02;89.11;100784.34;5129768;27;20039;-35
2021/10/29 05:40:48;;;;;;;9.03;6.53;;;;;;;9.02;89.01;100785.19;5114081;28;20450;-35
2021/10/29 05:43:13;;;;;;;10.90;7.38;;;;;;;9.03;88.68;100780.63;5113869;28;20016;-35
2021/10/29 05:45:38;;;;;;;10.25;7.03;;;;;;;8.86;89.58;100761.47;5113870;28;20065;-35
2021/10/29 05:48:06;;;;;;;9.07;6.80;;;;;;;8.85;89.25;100751.75;5114211;28;20102;-35
2021/10/29 05:50:32;;;;;;;10.43;6.82;;;;;;;8.96;89.34;100777.16;5113728;28;20107;-35
2021/10/29 05:52:58;;;;;;;13.40;7.78;;;;;;;8.98;89.34;100775.91;5113605;28;20023;-35
2021/10/29 05:55:24;;;;;;;12.52;7.10;;;;;;;8.97;89.42;100770.72;5095370;28;20441;-35
2021/10/29 05:57:51;;;;;;;9.83;6.70;;;;;;;8.94;89.70;100769.31;5113926;28;20031;-35
2021/10/29 06:00:20;;;;;;;11.27;7.78;;;;;;;8.88;90.22;100753.16;5113342;28;20023;-35
2021/10/29 06:02:46;;;;;;;12.13;7.25;;;;;;;8.88;89.77;100756.72;5113934;28;20023;-35
2021/10/29 06:05:12;;;;;;;;;;;;;;;9.00;89.51;100772.97;5114051;28;20084;-35
2021/10/29 06:07:38;;;;;;;10.00;7.38;;;;;;;8.94;90.02;100763.09;5114170;28;20229;-35
2021/10/29 06:10:05;;;;;;;13.55;7.00;;;;;;;8.97;89.48;100765.31;5114095;28;20015;-36
2021/10/29 06:12:32;;;;;;;11.75;6.95;;;;;;;8.97;89.17;100757.22;5113802;28;20024;-35
2021/10/29 06:14:58;;;;;;;13.13;7.32;;;;;;;8.90;89.60;100757.31;5113503;28;20031;-35
2021/10/29 06:17:24;;;;;;;10.03;7.67;;;;;;;8.95;89.51;100756.63;5113527;28;20368;-35
2021/10/29 06:19:49;;;;;;;10.95;7.75;;;;;;;8.95;89.93;100753.94;5117715;28;20269;-35
2021/10/29 06:24:44;;;;;;;11.38;7.25;;;;;;;8.98;89.63;100770.50;5118001;28;20043;-35
2021/10/29 06:29:44;;;;;;;12.45;8.05;;;;;;;8.95;90.21;100773.63;5117339;28;20031;-35
2021/10/29 06:32:09;;;;;;;11.27;7.50;;;;;;;8.92;89.77;100773.25;5117982;28;20020;-35
2021/10/29 06:34:35;;;;;;;10.33;7.30;;;;;;;8.92;89.89;100771.38;5117376;28;20462;-35
2021/10/29 06:37:02;;;;;;;;;;;;;;;8.96;89.58;100769.88;5118043;28;20015;-35
2021/10/29 06:39:27;;;;;;;9.43;7.18;;;;;;;8.89;89.53;100766.44;5117285;28;19904;-35
2021/10/29 06:41:54;;;;;;;13.73;8.10;;;;;;;8.72;90.15;100741.06;5117231;28;20080;-35
2021/10/29 06:44:37;;;;;;;10.15;7.20;;;;;;;8.91;90.36;100766.22;5116849;28;20100;-35
2021/10/29 06:47:35;;;;;;;13.07;8.05;;;;;;;8.87;89.98;100759.59;5117115;28;20027;-35
2021/10/29 07:01:13;;;;;;;13.18;8.38;;;;;;;8.99;90.26;100745.19;5116897;28;20039;-35
2021/10/29 07:11:41;;;;;;;14.07;7.47;;;;;;;9.14;89.74;100754.78;5117025;28;20116;-35
2021/10/29 07:41:26;;;;;;;10.55;7.47;;;;;;;9.72;88.10;100748.94;5116395;28;20119;-35
2021/10/29 07:43:55;;;;;;;11.13;6.90;;;;;;;9.72;88.72;100743.53;5116799;28;20055;-35
2021/10/29 07:46:20;;;;;;;13.00;7.25;;;;;;;9.74;88.61;100731.44;5116219;28;20020;-35
2021/10/29 07:48:47;;;;;;;10.50;7.90;;;;;;;9.88;88.13;100750.16;5116069;28;20073;-35
2021/10/29 07:51:12;;;;;;;;;;;;;;;9.94;88.17;100744.66;5116620;28;20074;-36
2021/10/29 07:53:38;;;;;;;9.10;7.10;;;;;;;9.92;87.61;100730.56;5115988;28;19904;-36
2021/10/29 07:56:05;;;;;;;11.90;7.60;;;;;;;10.10;87.79;100753.16;5115790;28;20110;-36
2021/10/29 07:58:31;;;;;;;9.35;7.18;;;;;;;10.09;86.61;100738.00;5115551;28;20024;-35
2021/10/29 08:00:58;;;;;;;13.20;7.93;;;;;;;10.24;86.68;100752.78;5115344;28;20053;-35
2021/10/29 08:03:23;;;;;;;11.93;7.10;;;;;;;10.29;86.04;100750.19;5115871;28;20016;-35
2021/10/29 08:05:49;;;;;;;10.93;7.88;;;;;;;10.39;86.19;100746.94;5115606;28;20024;-35
2021/10/29 08:08:19;;;;;;;11.80;7.28;;;;;;;10.39;85.69;100744.22;5115385;28;20027;-35
2021/10/29 08:10:44;;;;;;;13.60;7.32;;;;;;;10.49;85.24;100732.84;5115391;28;20016;-35
2021/10/29 08:13:10;;;;;;;12.67;7.60;;;;;;;10.61;85.40;100741.00;5115225;28;20030;-35
2021/10/29 08:15:37;;;;;;;12.32;7.90;;;;;;;10.71;84.67;100736.66;5115301;28;20348;-35
2021/10/29 08:18:07;;;;;;;11.65;7.28;;;;;;;10.70;84.29;100724.19;5116050;28;20027;-35
2021/10/29 08:20:34;;;;;;;9.40;7.10;;;;;;;10.82;84.91;100721.47;5115223;28;20023;-35
2021/10/29 08:22:59;;;;;;;13.38;8.10;;;;;;;10.86;84.79;100719.94;5115213;28;20455;-35
2021/10/29 08:25:25;;;;;;;10.52;7.75;;;;;;;10.95;83.57;100721.25;5115030;28;20054;-35
2021/10/29 08:27:51;;;;;;;16.75;7.78;;;;;;;10.96;82.82;100700.41;5115066;28;20109;-35
2021/10/29 08:30:16;;;;;;;11.95;7.30;;;;;;;11.08;83.56;100720.19;5115102;28;20023;-35
2021/10/29 08:32:43;;;;;;;13.57;7.25;;;;;;;11.16;82.87;100718.97;5115012;28;20107;-36
2021/10/29 08:35:10;;;;;;;11.45;7.28;;;;;;;11.21;83.59;100716.38;5115421;28;20097;-35
2021/10/29 08:37:36;;;;;;;10.73;7.00;;;;;;;11.25;83.07;100704.00;5115156;28;20027;-36
2021/10/29 08:40:04;;;;;;;12.90;7.45;;;;;;;11.29;82.67;100711.41;5114680;28;20484;-36
2021/10/29 08:42:30;;;;;;;12.13;7.30;;;;;;;11.34;81.82;100705.28;5114479;28;20038;-35
2021/10/29 08:44:56;;;;;;;13.30;8.30;;;;;;;11.37;82.02;100679.59;5115511;28;20358;-36
2021/10/29 08:47:23;;;;;;;11.97;7.80;;;;;;;11.48;81.00;100705.84;5114532;28;20031;-35
2021/10/29 08:49:49;;;;;;;12.48;7.35;;;;;;;11.49;81.10;100693.94;5114672;28;20024;-35
2021/10/29 08:52:21;;;;;;;11.23;7.60;;;;;;;11.45;81.73;100682.78;5114847;28;20075;-35
2021/10/29 08:54:50;;;;;;;12.70;6.95;;;;;;;11.55;82.09;100693.78;5114535;28;20023;-35
2021/10/29 08:57:17;;;;;;;13.75;8.15;;;;;;;11.60;81.93;100695.78;5115082;28;20164;-35
2021/10/29 08:59:47;;;;;;;10.75;7.82;;;;;;;11.70;80.77;100681.63;5114246;28;20497;-35
2021/10/29 09:02:28;;;;;;;14.18;7.68;;;;;;;11.83;79.88;100684.06;5114440;28;20030;-36
2021/10/29 09:05:20;;;;;;;11.57;7.57;;;;;;;11.91;79.96;100683.69;5114728;28;20363;-35
2021/10/29 09:32:22;;;;;;;9.55;6.78;;;;;;;12.65;77.61;100648.28;5113668;28;20103;-36
2021/10/29 09:35:09;;;;;;;9.52;6.63;;;;;;;12.69;77.96;100640.44;5113834;28;20026;-36
2021/10/29 09:38:06;;;;;;;10.75;6.80;;;;;;;12.81;78.59;100646.59;5114281;28;20028;-36
2021/10/29 09:40:53;;;;;;;8.40;6.65;;;;;;;12.91;76.85;100638.59;5114248;28;20019;-36
2021/10/29 09:43:20;;;;;;;9.40;6.45;;;;;;;13.01;76.14;100638.72;5113986;28;20371;-35
2021/10/29 09:46:03;;;;;;;9.20;6.70;;;;;;;13.14;76.43;100640.25;5113768;28;20023;-36
2021/10/29 09:48:46;;;;;;;10.57;6.05;;;;;;;13.29;76.03;100635.03;5113862;28;20451;-36
2021/10/29 09:51:14;;;;;;;9.93;5.75;;;;;;;13.34;74.55;100639.69;5113895;28;20409;-36
2021/10/29 09:56:14;;;;;;;11.55;5.60;;;;;;;13.27;74.49;100642.59;5113936;28;20455;-36
2021/10/29 09:58:42;;;;;;;7.45;4.68;;;;;;;13.30;75.29;100638.56;5114267;28;20329;-36
2021/10/29 10:01:08;;;;;;;7.85;5.35;;;;;;;13.23;76.24;100641.47;5113488;28;20020;-35
2021/10/29 10:03:34;;;;;;;10.57;5.28;;;;;;;13.26;75.00;100632.81;5113599;28;20023;-36
2021/10/29 10:06:01;;;;;;;;;;;;;;;13.31;76.55;100637.47;5113963;28;20430;-36
2021/10/29 10:08:28;;;;;;;10.05;5.20;;;;;;;13.43;75.90;100637.34;5113456;28;20346;-36
2021/10/29 10:10:55;;;;;;;7.50;5.07;;;;;;;13.50;75.51;100641.50;5113147;28;20031;-36
2021/10/29 10:13:21;;;;;;;12.80;5.18;;;;;;;13.59;74.88;100634.53;5113371;28;20023;-36
2021/10/29 10:15:50;;;;;;;9.60;5.32;;;;;;;13.70;74.50;100627.28;5113108;28;20031;-35
2021/10/29 10:18:17;;;;;;;7.65;5.35;;;;;;;13.79;75.14;100619.50;5113139;28;20528;-36
2021/10/29 10:20:44;;;;;;;10.00;5.13;;;;;;;13.89;74.25;100616.88;5113623;28;20073;-36
2021/10/29 10:23:14;;;;;;;10.48;4.70;;;;;;;14.07;73.98;100615.69;5113083;28;20028;-36
2021/10/29 10:25:59;;;;;;;9.95;4.40;;;;;;;14.26;72.26;100607.94;5113685;28;20036;-36
2021/10/29 10:46:15;;;;;;;5.90;3.70;;;;;;;14.58;70.83;100599.72;5113204;28;20028;-36
2021/10/29 10:48:51;;;;;;;8.25;3.58;;;;;;;14.67;68.54;100598.97;5113837;28;20016;-36
2021/10/29 10:51:35;;;;;;;10.40;4.20;;;;;;;14.68;70.19;100595.16;5113906;28;20024;-36
2021/10/29 10:54:16;;;;;;;6.50;3.17;;;;;;;14.81;69.05;100601.22;5113411;28;20032;-36
2021/10/29 11:05:10;;;;;;;7.60;3.75;;;;;;;15.38;67.01;100552.13;5114885;28;20110;-36
2021/10/29 11:10:20;;;;;;;7.55;3.13;;;;;;;15.52;66.59;100560.59;5116743;28;20417;-36
2021/10/29 11:12:46;;;;;;;7.50;3.13;;;;;;;15.64;66.77;100547.53;5116723;28;20102;-36
2021/10/29 11:15:17;;;;;;;;;;;;;;;15.73;67.50;100544.28;5117255;28;20372;-36
2021/10/29 11:18:00;;;;;;;5.18;2.63;;;;;;;15.74;66.04;100529.56;5117305;28;19907;-36
2021/10/29 11:20:41;;;;;;;6.53;2.95;;;;;;;15.91;65.68;100546.47;5116907;28;20106;-36
2021/10/29 11:23:29;;;;;;;4.25;2.80;;;;;;;15.97;65.31;100526.28;5117232;28;20031;-36
2021/10/29 11:26:01;;;;;;;;;;;;;;;16.08;66.20;100525.16;5116822;28;20475;-36
2021/10/29 11:28:39;;;;;;;6.03;2.70;;;;;;;16.21;64.95;100510.97;5116008;28;19908;-36
2021/10/29 11:31:07;;;;;;;5.32;2.55;;;;;;;16.20;63.79;100506.59;5115965;28;20471;-36
2021/10/29 11:33:33;;;;;;;7.05;2.63;;;;;;;16.23;63.89;100491.59;5116219;28;20034;-36
2021/10/29 11:36:05;;;;;;;5.68;3.00;;;;;;;16.24;64.85;100490.47;5097448;28;20061;-35
2021/10/29 11:38:33;;;;;;;7.05;2.58;;;;;;;16.25;63.07;100483.94;5116344;28;20452;-36
2021/10/29 11:41:00;;;;;;;8.45;2.50;;;;;;;16.22;64.12;100482.59;5116053;28;20425;-36
2021/10/29 11:43:30;;;;;;;4.43;2.25;;;;;;;16.14;64.36;100472.22;5116078;28;20130;-36
2021/10/29 11:46:05;;;;;;;4.85;2.58;;;;;;;16.13;65.03;100473.34;5115409;28;20386;-36
2021/10/29 11:48:34;;;;;;;8.60;3.00;;;;;;;16.05;65.11;100481.25;5115452;28;20033;-36
2021/10/29 11:51:26;;;;;;;5.40;2.90;;;;;;;16.05;66.02;100492.16;5116092;28;20367;-36
2021/10/29 11:53:57;;;;;;;7.55;2.78;;;;;;;16.10;66.00;100478.50;5111951;28;20463;-36
2021/10/29 12:01:40;;;;;;;4.47;2.30;;;;;;;16.54;65.31;100473.19;5116047;28;20035;-36
2021/10/29 12:09:37;;;;;;;5.32;2.42;;;;;;;16.76;62.50;100448.28;5115248;28;20042;-36
2021/10/29 12:12:18;;;;;;;7.15;2.75;;;;;;;16.85;63.93;100464.88;5115521;28;20364;-36
2021/10/29 12:14:46;;;;;;;5.25;2.58;;;;;;;16.86;60.74;100450.94;5115264;28;20042;-36
2021/10/29 12:17:23;;;;;;;7.72;2.20;;;;;;;17.02;62.08;100451.66;5096251;28;20410;-36
2021/10/29 12:19:56;;;;;;;3.92;2.33;;;;;;;17.06;62.35;100451.91;5115939;28;20024;-36
2021/10/29 12:22:37;;;;;;;4.30;2.30;;;;;;;17.11;61.42;100444.50;5115676;28;20027;-36
2021/10/29 12:27:53;;;;;;;6.72;3.03;;;;;;;17.32;61.26;100430.66;5115693;28;20036;-36
2021/10/29 12:53:10;;;;;;;5.05;2.35;;;;;;;17.54;59.73;100384.56;5114757;28;20432;-36
2021/10/29 13:01:29;;;;;;;9.82;2.58;;;;;;;17.57;58.18;100383.16;5052435;28;20103;-36
2021/10/29 13:04:19;;;;;;;11.07;2.20;;;;;;;17.59;59.29;100384.50;5051573;28;20041;-36
2021/10/29 13:06:48;;;;;;;7.53;2.20;;;;;;;17.62;58.24;100389.41;5051445;28;20116;-36
2021/10/29 13:09:21;;;;;;;3.90;1.85;;;;;;;17.60;57.82;100388.88;5051493;28;20083;-36
2021/10/29 13:11:51;;;;;;;7.30;2.50;;;;;;;17.65;58.11;100388.00;5051551;28;20024;-36
2021/10/29 13:14:23;;;;;;;6.05;2.60;;;;;;;17.64;58.36;100381.72;5051387;28;20029;-36
2021/10/29 13:16:49;;;;;;;7.95;2.95;;;;;;;17.67;57.72;100381.16;5051617;28;20041;-36
2021/10/29 13:19:36;;;;;;;5.88;2.20;;;;;;;17.65;57.14;100375.16;5051538;28;20029;-36
2021/10/29 14:31:55;;;;;;;5.00;2.30;;;;;;;16.71;61.79;100399.13;5050397;28;20040;-36
2021/10/29 14:42:06;;;;;;;5.22;2.28;;;;;;;16.58;63.33;100414.19;5035132;28;20116;-36
2021/10/29 15:27:40;;;;;;;5.20;2.30;;;;;;;16.31;65.39;100408.34;5033865;28;20037;-36
2021/10/29 15:30:10;;;;;;;8.13;3.22;;;;;;;16.22;65.34;100408.13;5033872;28;20029;-37
2021/10/29 15:43:34;;;;;;;8.10;4.75;;;;;;;16.19;65.72;100425.84;5053128;28;20149;-36
2021/10/29 15:46:15;;;;;;;6.53;3.10;;;;;;;16.20;66.27;100440.28;5053942;28;20389;-36
2021/10/29 15:49:05;;;;;;;7.15;2.88;;;;;;;16.12;66.24;100430.78;5077392;28;20039;-36
2021/10/29 15:51:32;;;;;;;7.35;3.20;;;;;;;16.12;65.83;100438.97;5095249;28;20020;-36
2021/10/29 15:54:01;;;;;;;4.63;2.40;;;;;;;16.11;66.21;100442.81;5101315;28;20016;-35
2021/10/29 15:56:38;;;;;;;6.70;2.55;;;;;;;16.05;66.21;100437.63;5115925;28;20107;-36
2021/10/29 16:18:06;;;;;;;7.97;3.10;;;;;;;15.66;74.06;100476.41;5115937;28;20096;-36
2021/10/29 16:20:33;;;;;;;5.70;3.00;;;;;;;15.53;75.59;100485.09;5115790;28;20020;-36
2021/10/29 16:23:01;;;;;;;5.57;2.78;;;;;;;15.35;77.47;100478.28;5116379;28;20078;-36
2021/10/29 16:25:32;;;;;;;5.70;2.88;;;;;;;15.14;78.63;100467.38;5115872;28;20038;-36
2021/10/29 16:28:00;;;;;;;5.25;3.00;;;;;;;15.02;78.26;100455.09;5115815;28;20053;-36
2021/10/29 16:30:28;;;;;;;7.13;2.80;;;;;;;15.00;78.38;100471.69;5115083;28;20405;-36
2021/10/29 16:35:34;;;;;;;5.85;2.58;;;;;;;14.82;80.29;100477.63;5115924;28;20027;-36
2021/10/29 16:38:01;;;;;;;11.55;3.25;;;;;;;14.78;80.34;100485.50;5116010;28;20101;-36
2021/10/29 16:40:27;;;;;;;6.15;3.03;;;;;;;14.68;81.94;100475.41;5114839;28;20019;-36
2021/10/29 16:42:52;;;;;;;4.73;3.13;;;;;;;14.52;82.53;100471.00;5115375;28;20084;-36